sensor_id;sensor_type;location;lat;lon;timestamp;temperature;humidity
64997;SHT31;51545;51.568;6.998;2023-12-29T00:00:42;10.55;85.56
64997;SHT31;51545;51.568;6.998;2023-12-29T00:03:08;10.55;85.36
64997;SHT31;51545;51.568;6.998;2023-12-29T00:05:34;10.55;85.37
64997;SHT31;51545;51.568;6.998;2023-12-29T00:08:00;10.52;85.59
64997;SHT31;51545;51.568;6.998;2023-12-29T00:10:26;10.50;85.60
64997;SHT31;51545;51.568;6.998;2023-12-29T00:12:52;10.50;85.59
64997;SHT31;51545;51.568;6.998;2023-12-29T00:15:18;10.53;85.60
64997;SHT31;51545;51.568;6.998;2023-12-29T00:17:44;10.53;85.52
64997;SHT31;51545;51.568;6.998;2023-12-29T00:20:12;10.56;85.44
64997;SHT31;51545;51.568;6.998;2023-12-29T00:22:38;10.57;85.35
64997;SHT31;51545;51.568;6.998;2023-12-29T00:25:04;10.60;85.30
64997;SHT31;51545;51.568;6.998;2023-12-29T00:27:35;10.57;85.53
64997;SHT31;51545;51.568;6.998;2023-12-29T00:30:02;10.62;85.19
64997;SHT31;51545;51.568;6.998;2023-12-29T00:32:28;10.60;85.45
64997;SHT31;51545;51.568;6.998;2023-12-29T00:34:54;10.59;85.54
64997;SHT31;51545;51.568;6.998;2023-12-29T00:37:21;10.59;85.48
64997;SHT31;51545;51.568;6.998;2023-12-29T00:39:47;10.63;85.40
64997;SHT31;51545;51.568;6.998;2023-12-29T00:42:13;10.62;85.34
64997;SHT31;51545;51.568;6.998;2023-12-29T00:44:40;10.62;85.33
64997;SHT31;51545;51.568;6.998;2023-12-29T00:47:06;10.67;85.28
64997;SHT31;51545;51.568;6.998;2023-12-29T00:49:33;10.66;85.30
64997;SHT31;51545;51.568;6.998;2023-12-29T00:51:59;10.60;85.53
64997;SHT31;51545;51.568;6.998;2023-12-29T00:54:28;10.57;85.74
64997;SHT31;51545;51.568;6.998;2023-12-29T00:56:53;10.62;85.44
64997;SHT31;51545;51.568;6.998;2023-12-29T00:59:19;10.62;85.53
64997;SHT31;51545;51.568;6.998;2023-12-29T01:01:45;10.57;85.51
64997;SHT31;51545;51.568;6.998;2023-12-29T01:04:11;10.56;85.64
64997;SHT31;51545;51.568;6.998;2023-12-29T01:06:37;10.55;85.68
64997;SHT31;51545;51.568;6.998;2023-12-29T01:09:03;10.52;85.77
64997;SHT31;51545;51.568;6.998;2023-12-29T01:11:29;10.50;85.92
64997;SHT31;51545;51.568;6.998;2023-12-29T01:13:55;10.52;85.84
64997;SHT31;51545;51.568;6.998;2023-12-29T01:16:21;10.53;85.73
64997;SHT31;51545;51.568;6.998;2023-12-29T01:18:47;10.53;85.78
64997;SHT31;51545;51.568;6.998;2023-12-29T01:21:13;10.57;85.77
64997;SHT31;51545;51.568;6.998;2023-12-29T01:23:39;10.59;85.78
64997;SHT31;51545;51.568;6.998;2023-12-29T01:26:05;10.59;85.67
64997;SHT31;51545;51.568;6.998;2023-12-29T01:28:31;10.59;85.64
64997;SHT31;51545;51.568;6.998;2023-12-29T01:30:57;10.60;85.78
64997;SHT31;51545;51.568;6.998;2023-12-29T01:33:23;10.60;85.76
64997;SHT31;51545;51.568;6.998;2023-12-29T01:35:49;10.65;85.55
64997;SHT31;51545;51.568;6.998;2023-12-29T01:38:15;10.67;85.36
64997;SHT31;51545;51.568;6.998;2023-12-29T01:40:44;10.69;85.33
64997;SHT31;51545;51.568;6.998;2023-12-29T01:43:12;10.63;85.53
64997;SHT31;51545;51.568;6.998;2023-12-29T01:45:38;10.65;85.39
64997;SHT31;51545;51.568;6.998;2023-12-29T01:48:05;10.66;85.39
64997;SHT31;51545;51.568;6.998;2023-12-29T01:50:31;10.66;85.56
64997;SHT31;51545;51.568;6.998;2023-12-29T01:52:57;10.65;85.73
64997;SHT31;51545;51.568;6.998;2023-12-29T01:55:27;10.56;86.94
64997;SHT31;51545;51.568;6.998;2023-12-29T01:57:54;10.45;88.38
64997;SHT31;51545;51.568;6.998;2023-12-29T02:00:21;10.26;89.28
64997;SHT31;51545;51.568;6.998;2023-12-29T02:02:47;10.15;90.45
64997;SHT31;51545;51.568;6.998;2023-12-29T02:05:14;10.03;90.87
64997;SHT31;51545;51.568;6.998;2023-12-29T02:07:43;9.86;91.94
64997;SHT31;51545;51.568;6.998;2023-12-29T02:10:10;9.70;93.21
64997;SHT31;51545;51.568;6.998;2023-12-29T02:12:41;9.59;93.35
64997;SHT31;51545;51.568;6.998;2023-12-29T02:15:07;9.48;94.25
64997;SHT31;51545;51.568;6.998;2023-12-29T02:17:41;9.36;94.94
64997;SHT31;51545;51.568;6.998;2023-12-29T02:20:11;9.31;95.46
64997;SHT31;51545;51.568;6.998;2023-12-29T02:26:37;9.27;95.45
64997;SHT31;51545;51.568;6.998;2023-12-29T02:29:04;9.22;95.99
64997;SHT31;51545;51.568;6.998;2023-12-29T02:31:35;9.20;95.76
64997;SHT31;51545;51.568;6.998;2023-12-29T02:34:09;9.18;96.16
64997;SHT31;51545;51.568;6.998;2023-12-29T02:36:39;9.14;96.54
64997;SHT31;51545;51.568;6.998;2023-12-29T02:39:09;9.15;96.38
64997;SHT31;51545;51.568;6.998;2023-12-29T02:41:37;9.12;96.51
64997;SHT31;51545;51.568;6.998;2023-12-29T02:44:04;9.12;96.77
64997;SHT31;51545;51.568;6.998;2023-12-29T02:46:30;9.14;96.58
64997;SHT31;51545;51.568;6.998;2023-12-29T02:48:56;9.10;97.10
64997;SHT31;51545;51.568;6.998;2023-12-29T02:51:22;9.05;97.18
64997;SHT31;51545;51.568;6.998;2023-12-29T02:53:48;9.03;97.40
64997;SHT31;51545;51.568;6.998;2023-12-29T02:56:15;9.03;97.10
64997;SHT31;51545;51.568;6.998;2023-12-29T02:58:41;9.07;97.09
64997;SHT31;51545;51.568;6.998;2023-12-29T03:01:07;9.12;96.76
64997;SHT31;51545;51.568;6.998;2023-12-29T03:03:33;9.15;96.61
64997;SHT31;51545;51.568;6.998;2023-12-29T03:05:59;9.18;96.65
64997;SHT31;51545;51.568;6.998;2023-12-29T03:08:25;9.18;96.68
64997;SHT31;51545;51.568;6.998;2023-12-29T03:10:51;9.20;96.51
64997;SHT31;51545;51.568;6.998;2023-12-29T03:13:17;9.22;96.43
64997;SHT31;51545;51.568;6.998;2023-12-29T03:15:43;9.24;96.40
64997;SHT31;51545;51.568;6.998;2023-12-29T03:18:09;9.32;95.59
64997;SHT31;51545;51.568;6.998;2023-12-29T03:20:34;9.36;95.54
64997;SHT31;51545;51.568;6.998;2023-12-29T03:23:00;9.40;95.31
64997;SHT31;51545;51.568;6.998;2023-12-29T03:25:26;9.45;95.32
64997;SHT31;51545;51.568;6.998;2023-12-29T03:27:52;9.49;94.86
64997;SHT31;51545;51.568;6.998;2023-12-29T03:30:18;9.53;94.53
64997;SHT31;51545;51.568;6.998;2023-12-29T03:32:44;9.55;94.56
64997;SHT31;51545;51.568;6.998;2023-12-29T03:35:10;9.60;94.09
64997;SHT31;51545;51.568;6.998;2023-12-29T03:37:36;9.59;93.96
64997;SHT31;51545;51.568;6.998;2023-12-29T03:40:03;9.67;93.51
64997;SHT31;51545;51.568;6.998;2023-12-29T03:42:29;9.73;93.26
64997;SHT31;51545;51.568;6.998;2023-12-29T03:44:55;9.71;93.39
64997;SHT31;51545;51.568;6.998;2023-12-29T03:47:21;9.70;93.53
64997;SHT31;51545;51.568;6.998;2023-12-29T03:49:47;9.69;93.93
64997;SHT31;51545;51.568;6.998;2023-12-29T03:52:12;9.66;93.49
64997;SHT31;51545;51.568;6.998;2023-12-29T03:54:38;9.70;93.56
64997;SHT31;51545;51.568;6.998;2023-12-29T03:57:04;9.70;93.13
64997;SHT31;51545;51.568;6.998;2023-12-29T03:59:30;9.71;93.37
64997;SHT31;51545;51.568;6.998;2023-12-29T04:01:56;9.69;93.36
64997;SHT31;51545;51.568;6.998;2023-12-29T04:04:22;9.69;93.36
64997;SHT31;51545;51.568;6.998;2023-12-29T04:06:49;9.71;92.98
64997;SHT31;51545;51.568;6.998;2023-12-29T04:09:15;9.69;93.37
64997;SHT31;51545;51.568;6.998;2023-12-29T04:11:41;9.69;92.90
64997;SHT31;51545;51.568;6.998;2023-12-29T04:14:08;9.70;92.59
64997;SHT31;51545;51.568;6.998;2023-12-29T04:16:39;9.67;92.65
64997;SHT31;51545;51.568;6.998;2023-12-29T04:19:05;9.66;92.89
64997;SHT31;51545;51.568;6.998;2023-12-29T04:21:31;9.71;92.23
64997;SHT31;51545;51.568;6.998;2023-12-29T04:23:57;9.74;92.18
64997;SHT31;51545;51.568;6.998;2023-12-29T04:26:22;9.73;92.15
64997;SHT31;51545;51.568;6.998;2023-12-29T04:28:48;9.79;91.81
64997;SHT31;51545;51.568;6.998;2023-12-29T04:31:14;9.82;91.87
64997;SHT31;51545;51.568;6.998;2023-12-29T04:33:40;9.83;91.76
64997;SHT31;51545;51.568;6.998;2023-12-29T04:36:06;9.90;91.62
64997;SHT31;51545;51.568;6.998;2023-12-29T04:38:32;9.97;91.39
64997;SHT31;51545;51.568;6.998;2023-12-29T04:40:58;9.97;91.37
64997;SHT31;51545;51.568;6.998;2023-12-29T04:43:24;10.10;90.72
64997;SHT31;51545;51.568;6.998;2023-12-29T04:45:50;10.12;90.54
64997;SHT31;51545;51.568;6.998;2023-12-29T04:48:16;10.07;90.70
64997;SHT31;51545;51.568;6.998;2023-12-29T04:50:42;10.11;90.47
64997;SHT31;51545;51.568;6.998;2023-12-29T04:53:08;10.15;90.33
64997;SHT31;51545;51.568;6.998;2023-12-29T04:55:34;10.17;90.21
64997;SHT31;51545;51.568;6.998;2023-12-29T04:58:00;10.24;89.90
64997;SHT31;51545;51.568;6.998;2023-12-29T05:00:26;10.24;89.95
64997;SHT31;51545;51.568;6.998;2023-12-29T05:02:52;10.22;90.17
64997;SHT31;51545;51.568;6.998;2023-12-29T05:05:18;10.15;90.26
64997;SHT31;51545;51.568;6.998;2023-12-29T05:07:44;10.20;89.99
64997;SHT31;51545;51.568;6.998;2023-12-29T05:10:10;10.22;89.68
64997;SHT31;51545;51.568;6.998;2023-12-29T05:16:35;10.22;89.69
64997;SHT31;51545;51.568;6.998;2023-12-29T05:19:01;10.29;89.01
64997;SHT31;51545;51.568;6.998;2023-12-29T05:21:26;10.25;89.37
64997;SHT31;51545;51.568;6.998;2023-12-29T05:23:52;10.22;89.50
64997;SHT31;51545;51.568;6.998;2023-12-29T05:26:18;10.24;89.18
64997;SHT31;51545;51.568;6.998;2023-12-29T05:28:44;10.24;89.03
64997;SHT31;51545;51.568;6.998;2023-12-29T05:31:10;10.28;88.42
64997;SHT31;51545;51.568;6.998;2023-12-29T05:33:36;10.29;88.59
64997;SHT31;51545;51.568;6.998;2023-12-29T05:36:05;10.22;88.71
64997;SHT31;51545;51.568;6.998;2023-12-29T05:38:34;10.21;88.67
64997;SHT31;51545;51.568;6.998;2023-12-29T05:41:01;10.26;88.26
64997;SHT31;51545;51.568;6.998;2023-12-29T05:43:30;10.24;88.49
64997;SHT31;51545;51.568;6.998;2023-12-29T05:45:58;10.22;88.69
64997;SHT31;51545;51.568;6.998;2023-12-29T05:48:24;10.26;88.23
64997;SHT31;51545;51.568;6.998;2023-12-29T05:50:50;10.26;88.16
64997;SHT31;51545;51.568;6.998;2023-12-29T05:53:17;10.25;88.68
64997;SHT31;51545;51.568;6.998;2023-12-29T05:55:43;10.22;88.74
64997;SHT31;51545;51.568;6.998;2023-12-29T05:58:09;10.22;88.28
64997;SHT31;51545;51.568;6.998;2023-12-29T06:00:38;10.21;88.42
64997;SHT31;51545;51.568;6.998;2023-12-29T06:03:05;10.25;87.94
64997;SHT31;51545;51.568;6.998;2023-12-29T06:05:31;10.21;88.65
64997;SHT31;51545;51.568;6.998;2023-12-29T06:07:58;10.20;88.36
64997;SHT31;51545;51.568;6.998;2023-12-29T06:10:24;10.17;88.68
64997;SHT31;51545;51.568;6.998;2023-12-29T06:12:50;10.14;88.39
64997;SHT31;51545;51.568;6.998;2023-12-29T06:15:16;10.12;88.41
64997;SHT31;51545;51.568;6.998;2023-12-29T06:17:42;10.11;88.32
64997;SHT31;51545;51.568;6.998;2023-12-29T06:20:09;10.17;88.35
64997;SHT31;51545;51.568;6.998;2023-12-29T06:22:39;10.12;88.47
64997;SHT31;51545;51.568;6.998;2023-12-29T06:25:10;10.14;88.52
64997;SHT31;51545;51.568;6.998;2023-12-29T06:27:37;10.17;88.33
64997;SHT31;51545;51.568;6.998;2023-12-29T06:30:05;10.18;88.26
64997;SHT31;51545;51.568;6.998;2023-12-29T06:36:06;10.24;88.05
64997;SHT31;51545;51.568;6.998;2023-12-29T06:38:33;10.26;87.87
64997;SHT31;51545;51.568;6.998;2023-12-29T06:41:02;10.25;88.01
64997;SHT31;51545;51.568;6.998;2023-12-29T06:43:29;10.24;88.22
64997;SHT31;51545;51.568;6.998;2023-12-29T06:45:55;10.18;88.23
64997;SHT31;51545;51.568;6.998;2023-12-29T06:48:21;10.18;88.67
64997;SHT31;51545;51.568;6.998;2023-12-29T06:50:47;10.18;88.30
64997;SHT31;51545;51.568;6.998;2023-12-29T06:53:13;10.25;88.02
64997;SHT31;51545;51.568;6.998;2023-12-29T06:55:40;10.22;88.24
64997;SHT31;51545;51.568;6.998;2023-12-29T06:58:07;10.18;88.61
64997;SHT31;51545;51.568;6.998;2023-12-29T07:00:33;10.17;88.59
64997;SHT31;51545;51.568;6.998;2023-12-29T07:03:02;10.14;88.78
64997;SHT31;51545;51.568;6.998;2023-12-29T07:05:28;10.15;88.61
64997;SHT31;51545;51.568;6.998;2023-12-29T07:07:54;10.12;89.27
64997;SHT31;51545;51.568;6.998;2023-12-29T07:10:20;10.15;89.45
64997;SHT31;51545;51.568;6.998;2023-12-29T07:12:46;10.04;90.09
64997;SHT31;51545;51.568;6.998;2023-12-29T07:15:11;9.95;90.75
64997;SHT31;51545;51.568;6.998;2023-12-29T07:17:39;9.93;91.10
64997;SHT31;51545;51.568;6.998;2023-12-29T07:20:06;9.86;91.64
64997;SHT31;51545;51.568;6.998;2023-12-29T07:22:32;9.79;92.11
64997;SHT31;51545;51.568;6.998;2023-12-29T07:24:58;9.74;92.13
64997;SHT31;51545;51.568;6.998;2023-12-29T07:27:24;9.70;92.40
64997;SHT31;51545;51.568;6.998;2023-12-29T07:29:51;9.65;92.90
64997;SHT31;51545;51.568;6.998;2023-12-29T07:32:17;9.63;92.97
64997;SHT31;51545;51.568;6.998;2023-12-29T07:34:43;9.69;92.48
64997;SHT31;51545;51.568;6.998;2023-12-29T07:37:10;9.73;92.40
64997;SHT31;51545;51.568;6.998;2023-12-29T07:39:36;9.74;92.47
64997;SHT31;51545;51.568;6.998;2023-12-29T07:42:02;9.70;92.75
64997;SHT31;51545;51.568;6.998;2023-12-29T07:44:29;9.74;92.50
64997;SHT31;51545;51.568;6.998;2023-12-29T07:46:56;9.70;92.79
64997;SHT31;51545;51.568;6.998;2023-12-29T07:49:23;9.69;92.92
64997;SHT31;51545;51.568;6.998;2023-12-29T07:51:49;9.69;93.07
64997;SHT31;51545;51.568;6.998;2023-12-29T07:54:15;9.67;93.19
64997;SHT31;51545;51.568;6.998;2023-12-29T07:56:41;9.73;92.99
64997;SHT31;51545;51.568;6.998;2023-12-29T07:59:08;9.77;92.85
64997;SHT31;51545;51.568;6.998;2023-12-29T08:01:34;9.77;92.99
64997;SHT31;51545;51.568;6.998;2023-12-29T08:04:02;9.74;93.17
64997;SHT31;51545;51.568;6.998;2023-12-29T08:06:28;9.77;92.93
64997;SHT31;51545;51.568;6.998;2023-12-29T08:08:54;9.80;92.89
64997;SHT31;51545;51.568;6.998;2023-12-29T08:11:20;9.83;92.77
64997;SHT31;51545;51.568;6.998;2023-12-29T08:13:47;9.89;92.56
64997;SHT31;51545;51.568;6.998;2023-12-29T08:16:14;9.91;92.69
64997;SHT31;51545;51.568;6.998;2023-12-29T08:18:44;9.90;92.81
64997;SHT31;51545;51.568;6.998;2023-12-29T08:21:15;9.91;92.72
64997;SHT31;51545;51.568;6.998;2023-12-29T08:23:47;9.93;92.68
64997;SHT31;51545;51.568;6.998;2023-12-29T08:26:14;9.93;92.61
64997;SHT31;51545;51.568;6.998;2023-12-29T08:28:40;9.94;92.73
64997;SHT31;51545;51.568;6.998;2023-12-29T08:31:07;9.93;92.81
64997;SHT31;51545;51.568;6.998;2023-12-29T08:33:33;9.89;93.09
64997;SHT31;51545;51.568;6.998;2023-12-29T08:36:01;9.89;93.25
64997;SHT31;51545;51.568;6.998;2023-12-29T08:38:29;9.83;93.75
64997;SHT31;51545;51.568;6.998;2023-12-29T08:40:56;9.77;94.25
64997;SHT31;51545;51.568;6.998;2023-12-29T08:43:22;9.74;94.30
64997;SHT31;51545;51.568;6.998;2023-12-29T08:45:48;9.74;94.39
64997;SHT31;51545;51.568;6.998;2023-12-29T08:48:14;9.76;94.37
64997;SHT31;51545;51.568;6.998;2023-12-29T08:50:41;9.76;94.25
64997;SHT31;51545;51.568;6.998;2023-12-29T08:53:09;9.77;94.62
64997;SHT31;51545;51.568;6.998;2023-12-29T08:55:34;9.71;94.53
64997;SHT31;51545;51.568;6.998;2023-12-29T08:58:01;9.77;94.36
64997;SHT31;51545;51.568;6.998;2023-12-29T09:00:27;9.82;94.42
64997;SHT31;51545;51.568;6.998;2023-12-29T09:02:58;9.84;93.96
64997;SHT31;51545;51.568;6.998;2023-12-29T09:05:24;9.87;93.90
64997;SHT31;51545;51.568;6.998;2023-12-29T09:07:50;9.89;93.81
64997;SHT31;51545;51.568;6.998;2023-12-29T09:10:16;9.86;94.28
64997;SHT31;51545;51.568;6.998;2023-12-29T09:12:43;9.82;94.30
64997;SHT31;51545;51.568;6.998;2023-12-29T09:15:09;9.84;94.21
64997;SHT31;51545;51.568;6.998;2023-12-29T09:17:35;9.86;94.35
64997;SHT31;51545;51.568;6.998;2023-12-29T09:20:01;9.84;94.36
64997;SHT31;51545;51.568;6.998;2023-12-29T09:22:28;9.86;94.33
64997;SHT31;51545;51.568;6.998;2023-12-29T09:24:54;9.89;93.96
64997;SHT31;51545;51.568;6.998;2023-12-29T09:27:21;9.89;93.94
64997;SHT31;51545;51.568;6.998;2023-12-29T09:29:47;10.00;93.38
64997;SHT31;51545;51.568;6.998;2023-12-29T09:32:13;10.04;93.15
64997;SHT31;51545;51.568;6.998;2023-12-29T09:34:39;10.01;93.28
64997;SHT31;51545;51.568;6.998;2023-12-29T09:37:05;10.07;93.07
64997;SHT31;51545;51.568;6.998;2023-12-29T09:39:31;10.11;92.75
64997;SHT31;51545;51.568;6.998;2023-12-29T09:41:59;10.10;92.63
64997;SHT31;51545;51.568;6.998;2023-12-29T09:44:31;10.12;92.78
64997;SHT31;51545;51.568;6.998;2023-12-29T09:47:01;10.12;92.83
64997;SHT31;51545;51.568;6.998;2023-12-29T09:49:31;10.14;92.71
64997;SHT31;51545;51.568;6.998;2023-12-29T09:52:07;10.12;93.01
64997;SHT31;51545;51.568;6.998;2023-12-29T09:54:36;10.11;93.24
64997;SHT31;51545;51.568;6.998;2023-12-29T09:57:03;10.14;92.84
64997;SHT31;51545;51.568;6.998;2023-12-29T09:59:32;10.18;92.71
64997;SHT31;51545;51.568;6.998;2023-12-29T10:02:12;10.20;92.68
64997;SHT31;51545;51.568;6.998;2023-12-29T10:04:41;10.21;92.59
64997;SHT31;51545;51.568;6.998;2023-12-29T10:07:07;10.24;92.39
64997;SHT31;51545;51.568;6.998;2023-12-29T10:09:37;10.24;92.53
64997;SHT31;51545;51.568;6.998;2023-12-29T10:12:04;10.25;92.27
64997;SHT31;51545;51.568;6.998;2023-12-29T10:22:51;10.38;91.88
64997;SHT31;51545;51.568;6.998;2023-12-29T10:25:32;10.42;91.61
64997;SHT31;51545;51.568;6.998;2023-12-29T10:27:58;10.43;91.52
64997;SHT31;51545;51.568;6.998;2023-12-29T10:30:24;10.35;91.56
64997;SHT31;51545;51.568;6.998;2023-12-29T10:32:52;10.35;92.03
64997;SHT31;51545;51.568;6.998;2023-12-29T10:35:18;10.36;92.47
64997;SHT31;51545;51.568;6.998;2023-12-29T10:37:44;10.29;93.06
64997;SHT31;51545;51.568;6.998;2023-12-29T10:40:16;10.28;93.38
64997;SHT31;51545;51.568;6.998;2023-12-29T10:42:53;10.28;93.72
64997;SHT31;51545;51.568;6.998;2023-12-29T10:45:20;10.29;93.99
64997;SHT31;51545;51.568;6.998;2023-12-29T10:47:47;10.32;94.02
64997;SHT31;51545;51.568;6.998;2023-12-29T10:50:14;10.33;93.95
64997;SHT31;51545;51.568;6.998;2023-12-29T10:52:40;10.38;93.89
64997;SHT31;51545;51.568;6.998;2023-12-29T10:55:08;10.40;93.92
64997;SHT31;51545;51.568;6.998;2023-12-29T10:57:38;10.38;93.51
64997;SHT31;51545;51.568;6.998;2023-12-29T11:00:04;10.43;93.28
64997;SHT31;51545;51.568;6.998;2023-12-29T11:06:43;10.45;92.61
64997;SHT31;51545;51.568;6.998;2023-12-29T11:09:13;10.49;92.45
64997;SHT31;51545;51.568;6.998;2023-12-29T11:11:39;10.52;92.32
64997;SHT31;51545;51.568;6.998;2023-12-29T11:14:08;10.52;91.94
64997;SHT31;51545;51.568;6.998;2023-12-29T11:16:37;10.57;91.88
64997;SHT31;51545;51.568;6.998;2023-12-29T11:19:04;10.60;91.35
64997;SHT31;51545;51.568;6.998;2023-12-29T11:21:34;10.62;91.23
64997;SHT31;51545;51.568;6.998;2023-12-29T11:24:01;10.66;90.93
64997;SHT31;51545;51.568;6.998;2023-12-29T11:26:27;10.69;90.58
64997;SHT31;51545;51.568;6.998;2023-12-29T11:28:54;10.70;90.45
64997;SHT31;51545;51.568;6.998;2023-12-29T11:31:21;10.76;90.58
64997;SHT31;51545;51.568;6.998;2023-12-29T11:33:52;10.79;90.52
64997;SHT31;51545;51.568;6.998;2023-12-29T11:36:28;10.83;90.29
64997;SHT31;51545;51.568;6.998;2023-12-29T11:38:59;10.83;90.39
64997;SHT31;51545;51.568;6.998;2023-12-29T11:41:33;10.84;90.92
64997;SHT31;51545;51.568;6.998;2023-12-29T11:44:17;10.79;91.16
64997;SHT31;51545;51.568;6.998;2023-12-29T11:46:51;10.76;91.13
64997;SHT31;51545;51.568;6.998;2023-12-29T11:49:17;10.77;91.32
64997;SHT31;51545;51.568;6.998;2023-12-29T11:51:44;10.83;91.07
64997;SHT31;51545;51.568;6.998;2023-12-29T11:54:22;10.83;91.14
64997;SHT31;51545;51.568;6.998;2023-12-29T11:56:55;10.86;91.17
64997;SHT31;51545;51.568;6.998;2023-12-29T11:59:24;10.84;91.07
64997;SHT31;51545;51.568;6.998;2023-12-29T12:01:53;10.87;90.80
64997;SHT31;51545;51.568;6.998;2023-12-29T12:04:40;10.86;91.06
64997;SHT31;51545;51.568;6.998;2023-12-29T12:07:15;10.87;91.03
64997;SHT31;51545;51.568;6.998;2023-12-29T12:09:42;10.87;90.75
64997;SHT31;51545;51.568;6.998;2023-12-29T12:12:09;10.86;90.81
64997;SHT31;51545;51.568;6.998;2023-12-29T12:17:29;10.86;91.08
64997;SHT31;51545;51.568;6.998;2023-12-29T12:20:08;10.87;91.04
64997;SHT31;51545;51.568;6.998;2023-12-29T12:22:38;10.87;91.14
64997;SHT31;51545;51.568;6.998;2023-12-29T12:25:06;10.84;91.40
64997;SHT31;51545;51.568;6.998;2023-12-29T12:27:33;10.81;91.31
64997;SHT31;51545;51.568;6.998;2023-12-29T12:29:59;10.81;91.45
64997;SHT31;51545;51.568;6.998;2023-12-29T12:32:26;10.86;91.34
64997;SHT31;51545;51.568;6.998;2023-12-29T12:34:53;10.91;90.97
64997;SHT31;51545;51.568;6.998;2023-12-29T12:37:19;10.91;90.94
64997;SHT31;51545;51.568;6.998;2023-12-29T12:39:49;10.93;91.38
64997;SHT31;51545;51.568;6.998;2023-12-29T12:42:21;10.91;90.69
64997;SHT31;51545;51.568;6.998;2023-12-29T12:45:04;10.91;90.85
64997;SHT31;51545;51.568;6.998;2023-12-29T12:47:37;10.88;90.95
64997;SHT31;51545;51.568;6.998;2023-12-29T12:50:16;10.86;91.20
64997;SHT31;51545;51.568;6.998;2023-12-29T12:56:42;10.39;93.65
64997;SHT31;51545;51.568;6.998;2023-12-29T12:59:09;10.33;94.23
64997;SHT31;51545;51.568;6.998;2023-12-29T13:01:36;10.24;95.14
64997;SHT31;51545;51.568;6.998;2023-12-29T13:04:03;9.39;95.90
64997;SHT31;51545;51.568;6.998;2023-12-29T13:06:33;8.73;97.36
64997;SHT31;51545;51.568;6.998;2023-12-29T13:09:05;8.52;98.24
64997;SHT31;51545;51.568;6.998;2023-12-29T13:11:40;8.39;99.08
64997;SHT31;51545;51.568;6.998;2023-12-29T13:14:07;8.44;99.02
64997;SHT31;51545;51.568;6.998;2023-12-29T13:16:34;8.46;99.26
64997;SHT31;51545;51.568;6.998;2023-12-29T13:19:22;8.48;99.58
64997;SHT31;51545;51.568;6.998;2023-12-29T13:21:53;8.48;99.69
64997;SHT31;51545;51.568;6.998;2023-12-29T13:24:21;8.41;98.61
64997;SHT31;51545;51.568;6.998;2023-12-29T13:26:50;8.37;98.54
64997;SHT31;51545;51.568;6.998;2023-12-29T13:29:22;8.31;98.56
64997;SHT31;51545;51.568;6.998;2023-12-29T13:31:53;8.31;99.07
64997;SHT31;51545;51.568;6.998;2023-12-29T13:34:48;8.37;99.20
64997;SHT31;51545;51.568;6.998;2023-12-29T13:37:44;8.41;99.64
64997;SHT31;51545;51.568;6.998;2023-12-29T13:40:24;8.44;99.93
64997;SHT31;51545;51.568;6.998;2023-12-29T13:43:00;8.50;99.99
64997;SHT31;51545;51.568;6.998;2023-12-29T13:45:29;8.48;99.99
64997;SHT31;51545;51.568;6.998;2023-12-29T13:47:56;8.53;99.99
64997;SHT31;51545;51.568;6.998;2023-12-29T13:50:23;8.55;99.99
64997;SHT31;51545;51.568;6.998;2023-12-29T13:52:49;8.53;99.98
64997;SHT31;51545;51.568;6.998;2023-12-29T13:55:22;8.09;99.99
64997;SHT31;51545;51.568;6.998;2023-12-29T13:57:49;8.00;99.99
64997;SHT31;51545;51.568;6.998;2023-12-29T14:00:19;8.06;99.99
64997;SHT31;51545;51.568;6.998;2023-12-29T14:05:24;8.14;99.99
64997;SHT31;51545;51.568;6.998;2023-12-29T14:07:55;8.16;99.99
64997;SHT31;51545;51.568;6.998;2023-12-29T14:10:29;8.17;99.99
64997;SHT31;51545;51.568;6.998;2023-12-29T14:15:37;8.24;99.99
64997;SHT31;51545;51.568;6.998;2023-12-29T14:18:05;8.39;99.99
64997;SHT31;51545;51.568;6.998;2023-12-29T14:20:39;8.41;99.99
64997;SHT31;51545;51.568;6.998;2023-12-29T14:23:06;8.42;99.99
64997;SHT31;51545;51.568;6.998;2023-12-29T14:25:36;8.50;99.99
64997;SHT31;51545;51.568;6.998;2023-12-29T14:28:03;8.90;99.99
64997;SHT31;51545;51.568;6.998;2023-12-29T14:30:39;9.34;99.99
64997;SHT31;51545;51.568;6.998;2023-12-29T14:33:05;9.48;99.99
64997;SHT31;51545;51.568;6.998;2023-12-29T14:35:31;9.52;99.99
64997;SHT31;51545;51.568;6.998;2023-12-29T14:37:57;9.52;99.99
64997;SHT31;51545;51.568;6.998;2023-12-29T14:40:23;9.60;99.63
64997;SHT31;51545;51.568;6.998;2023-12-29T14:42:49;9.55;99.69
64997;SHT31;51545;51.568;6.998;2023-12-29T14:45:15;9.60;99.46
64997;SHT31;51545;51.568;6.998;2023-12-29T14:47:41;9.63;98.63
64997;SHT31;51545;51.568;6.998;2023-12-29T14:50:07;9.63;98.68
64997;SHT31;51545;51.568;6.998;2023-12-29T14:52:33;9.60;98.58
64997;SHT31;51545;51.568;6.998;2023-12-29T14:54:59;9.62;98.39
64997;SHT31;51545;51.568;6.998;2023-12-29T14:57:25;9.60;97.79
64997;SHT31;51545;51.568;6.998;2023-12-29T14:59:51;9.62;97.39
64997;SHT31;51545;51.568;6.998;2023-12-29T15:02:17;9.66;97.44
64997;SHT31;51545;51.568;6.998;2023-12-29T15:04:42;9.63;97.44
64997;SHT31;51545;51.568;6.998;2023-12-29T15:07:08;9.66;97.24
64997;SHT31;51545;51.568;6.998;2023-12-29T15:09:34;9.66;96.98
64997;SHT31;51545;51.568;6.998;2023-12-29T15:12:02;9.69;96.78
64997;SHT31;51545;51.568;6.998;2023-12-29T15:14:30;9.71;96.10
64997;SHT31;51545;51.568;6.998;2023-12-29T15:16:57;9.70;95.80
64997;SHT31;51545;51.568;6.998;2023-12-29T15:19:23;9.67;95.92
64997;SHT31;51545;51.568;6.998;2023-12-29T15:21:49;9.71;95.64
64997;SHT31;51545;51.568;6.998;2023-12-29T15:24:19;9.76;95.45
64997;SHT31;51545;51.568;6.998;2023-12-29T15:26:46;9.77;95.51
64997;SHT31;51545;51.568;6.998;2023-12-29T15:29:12;9.74;95.65
64997;SHT31;51545;51.568;6.998;2023-12-29T15:31:41;9.71;95.82
64997;SHT31;51545;51.568;6.998;2023-12-29T15:34:08;9.76;95.70
64997;SHT31;51545;51.568;6.998;2023-12-29T15:36:34;9.73;96.22
64997;SHT31;51545;51.568;6.998;2023-12-29T15:39:01;9.74;96.14
64997;SHT31;51545;51.568;6.998;2023-12-29T15:41:27;9.69;96.73
64997;SHT31;51545;51.568;6.998;2023-12-29T15:43:53;9.62;97.25
64997;SHT31;51545;51.568;6.998;2023-12-29T15:46:19;9.57;97.57
64997;SHT31;51545;51.568;6.998;2023-12-29T15:48:47;9.50;98.07
64997;SHT31;51545;51.568;6.998;2023-12-29T15:51:14;9.46;98.54
64997;SHT31;51545;51.568;6.998;2023-12-29T15:53:40;9.49;98.70
64997;SHT31;51545;51.568;6.998;2023-12-29T15:56:06;9.45;98.87
64997;SHT31;51545;51.568;6.998;2023-12-29T15:58:32;9.40;99.14
64997;SHT31;51545;51.568;6.998;2023-12-29T16:00:58;9.39;99.24
64997;SHT31;51545;51.568;6.998;2023-12-29T16:03:24;9.40;99.24
64997;SHT31;51545;51.568;6.998;2023-12-29T16:05:50;9.46;99.07
64997;SHT31;51545;51.568;6.998;2023-12-29T16:08:16;9.46;99.09
64997;SHT31;51545;51.568;6.998;2023-12-29T16:10:42;9.48;99.16
64997;SHT31;51545;51.568;6.998;2023-12-29T16:13:08;9.48;99.22
64997;SHT31;51545;51.568;6.998;2023-12-29T16:15:34;9.52;99.07